DW7473 Weather Reports


Display with metric or nautical units.
time (UTC)temp
F
wind
direction
speed
MPH
gust
MPH
rain 1hr
in
rain 24hr
in
rain mn
in
humidity
%
barometer
mb
20181016161554 52 321 7.0 12.0 0.00 0.01 0.01 51 1022.6
20181016160052 53 306 4.0 9.0 0.00 0.01 0.01 51 1022.5
20181016154605 53 343 4.0 11.0 0.00 0.01 0.01 52 1022.8
20181016153059 52 325 5.0 10.0 0.00 0.01 0.01 53 1022.8
20181016151625 51 336 4.0 11.0 0.00 0.01 0.01 56 1022.9
20181016150122 50 54 5.0 11.0 0.00 0.01 0.01 58 1023.2
20181016144614 49 323 4.0 11.0 0.00 0.01 0.01 58 1023.2
20181016143102 49 296 4.0 13.0 0.00 0.01 0.01 59 1023.1
20181016141631 49 355 5.0 13.0 0.00 0.01 0.01 60 1023.1
20181016140123 49 34 4.0 11.0 0.00 0.01 0.01 61 1023.2
20181016134544 49 340 5.0 12.0 0.00 0.01 0.01 61 1023.4
20181016133037 48 254 6.0 12.0 0.00 0.01 0.01 62 1023.4
20181016131538 48 349 4.0 10.0 0.00 0.01 0.01 64 1023.3
20181016130042 47 302 6.0 13.0 0.00 0.01 0.01 64 1023.4
20181016124543 48 44 2.0 7.0 0.00 0.01 0.01 66 1023.4
20181016123031 47 311 2.0 12.0 0.00 0.01 0.01 67 1023.2
20181016121523 47 339 2.0 12.0 0.00 0.01 0.01 67 1022.9
20181016120047 47 326 6.0 13.0 0.00 0.01 0.01 67 1022.6
20181016114538 47 355 7.0 14.0 0.00 0.01 0.01 68 1022.4
20181016113014 47 333 3.0 15.0 0.00 0.01 0.01 70 1022.1
20181016111509 48 360 7.0 15.0 0.00 0.01 0.01 71 1021.7
20181016110258 49 360 3.0 11.0 0.00 0.01 0.01 73 1021.4
20181016104625 50 5 4.0 9.0 0.00 0.01 0.01 70 1021.2
20181016103140 50 333 5.0 10.0 0.00 0.01 0.01 70 1020.9
20181016101626 50 327 2.0 6.0 0.00 0.01 0.01 68 1020.8
20181016100131 51 341 2.0 10.0 0.00 0.01 0.01 66 1020.7
20181016094626 52 320 5.0 13.0 0.00 0.01 0.01 64 1020.4
20181016093148 52 329 5.0 11.0 0.00 0.01 0.01 63 1020.3
20181016091605 53 327 8.0 14.0 0.00 0.01 0.01 62 1020.1
20181016090046 53 347 8.0 15.0 0.00 0.01 0.01 63 1019.8
20181016084609 53 332 3.0 10.0 0.00 0.01 0.01 67 1019.5
20181016083050 54 345 5.0 16.0 0.00 0.01 0.01 70 1019.1
20181016081541 54 315 7.0 13.0 0.00 0.01 0.01 73 1018.9
20181016080038 55 355 3.0 9.0 0.00 0.01 0.01 74 1018.6
20181016074535 55 10 1.0 9.0 0.00 0.01 0.01 74 1018.2
20181016073027 56 346 6.0 13.0 0.00 0.01 0.01 72 1018.1
20181016071543 56 296 5.0 14.0 0.00 0.01 0.01 72 1017.9
20181016070015 56 344 4.0 14.0 0.00 0.01 0.01 72 1017.6
20181016064522 56 306 6.0 22.0 0.01 0.01 0.01 72 1017.5
20181016063011 57 316 6.0 15.0 0.01 0.01 0.01 73 1017.4
20181016061508 57 335 6.0 17.0 0.01 0.01 0.01 75 1017.3
20181016060007 57 30 7.0 23.0 0.01 0.01 0.01 78 1017.0
20181016054641 57 355 9.0 20.0 0.00 0.00 0.00 86 1016.7
20181016053113 57 325 5.0 17.0 0.00 0.00 0.00 90 1016.6
20181016051638 57 344 6.0 13.0 0.00 0.00 0.00 91 1016.4
20181016050117 58 334 7.0 23.0 0.00 0.00 0.00 88 1016.3
20181016044602 59 311 8.0 20.0 0.00 0.00 0.00 89 1015.8
20181016043116 59 355 8.0 18.0 0.00 0.00 0.00 90 1015.5
20181016041626 60 349 10.0 22.0 0.00 0.00 0.00 90 1015.2
20181016040103 61 322 7.0 13.0 0.00 0.00 0.00 93 1015.1
20181016034706 62 322 9.0 18.0 0.00 0.00 0.00 93 1015.0
20181016033118 63 279 3.0 14.0 0.00 0.00 0.00 92 1014.3
20181016031545 67 355 9.0 20.0 0.00 0.00 0.00 89 1014.0
20181016030148 69 343 6.0 13.0 0.00 0.00 0.00 90 1013.5
20181016024639 68 282 7.0 12.0 0.00 0.00 0.00 91 1013.2
20181016023101 67 290 1.0 9.0 0.00 0.00 0.00 93 1013.4
20181016021642 67 244 3.0 8.0 0.00 0.00 0.00 93 1013.2
20181016020055 67 241 0.0 11.0 0.00 0.00 0.00 93 1013.1
20181016014608 67 219 1.0 11.0 0.00 0.00 0.00 93 1013.3
20181016013100 67 282 0.0 9.0 0.00 0.00 0.00 93 1013.3
20181016011611 67 261 1.0 10.0 0.00 0.00 0.00 93 1013.2
20181016010035 66 288 1.0 9.0 0.00 0.00 0.00 94 1013.3
20181016004601 66 261 3.0 9.0 0.00 0.00 0.00 94 1013.3
20181016003102 66 202 1.0 8.0 0.00 0.00 0.00 94 1013.2
20181016001547 66 214 0.0 6.0 0.00 0.00 0.00 94 1013.3
20181016000037 65 268 1.0 9.0 0.00 0.00 0.00 95 1013.2
20181015234524 66 224 0.0 7.0 0.00 0.00 0.00 95 1013.5
20181015233057 66 267 0.0 7.0 0.00 0.00 0.00 94 1013.5
20181015231537 66 240 0.0 9.0 0.00 0.00 0.00 94 1013.8
20181015230035 66 224 1.0 9.0 0.00 0.00 0.00 94 1013.6
20181015224523 65 264 0.0 6.0 0.00 0.00 0.00 95 1013.9
20181015223033 65 229 0.0 4.0 0.00 0.00 0.00 95 1014.1
20181015221520 65 286 0.0 6.0 0.00 0.00 0.00 95 1013.9
20181015220017 65 246 0.0 6.0 0.00 0.00 0.00 95 1013.7
20181015214525 65 222 0.0 5.0 0.00 0.00 0.00 95 1013.7
20181015213017 65 302 0.0 7.0 0.00 0.00 0.00 94 1014.1
20181015211532 65 205 0.0 6.0 0.00 0.00 0.00 94 1014.2
20181015210013 65 228 0.0 2.0 0.00 0.00 0.00 94 1014.1
20181015204514 65 263 1.0 6.0 0.00 0.00 0.00 94 1014.5
20181015203011 65 187 0.0 7.0 0.00 0.00 0.00 94 1014.5
20181015201505 65 213 1.0 7.0 0.00 0.00 0.00 94 1015.1
20181015200004 64 219 1.0 9.0 0.00 0.00 0.00 95 1015.6
20181015194641 64 276 1.0 6.0 0.00 0.00 0.00 95 1015.8
20181015193153 64 283 1.0 7.0 0.00 0.00 0.00 95 1016.0
20181015191653 64 243 1.0 7.0 0.00 0.00 0.00 95 1015.9
20181015190119 63 282 0.0 6.0 0.00 0.00 0.00 96 1016.0
20181015184602 63 263 1.0 7.0 0.00 0.00 0.00 96 1016.2
20181015183112 63 257 0.0 9.0 0.00 0.00 0.00 97 1016.4
20181015181637 62 250 1.0 8.0 0.00 0.00 0.00 97 1016.2
20181015180121 62 271 1.0 8.0 0.00 0.00 0.00 97 1016.3
20181015174643 62 229 2.0 8.0 0.00 0.00 0.00 97 1016.4
20181015173122 62 248 1.0 8.0 0.00 0.00 0.00 98 1017.1
20181015171618 62 204 2.0 10.0 0.00 0.00 0.00 98 1017.2
20181015170109 61 269 2.0 8.0 0.00 0.00 0.00 98 1017.0
20181015164643 61 209 0.0 4.0 0.00 0.00 0.00 98 1017.5
20181015163059 61 208 0.0 4.0 0.00 0.00 0.00 98 1017.5